Terminal Aerodrome Forecast
Issued by NWS Boise, ID

Home | Current Version | Previous Version | Text Only | Print | Product List | Glossary On
Versions: 1 2 3 4 5 6 7 8 9 10 11 12 13 14 15 16
000
FTUS45 KBOI 050523
TAFBOI
TAF
KBOI 050523Z 0506/0606 15010KT P6SM VCSH BKN100 OVC200
      TEMPO 0506/0507 15015G25KT P6SM -SHRA SCT050 BKN100
     FM050900 VRB06KT P6SM BKN100 OVC200
     FM052100 15011G17KT P6SM VCSH BKN100 OVC200
     FM060300 15011KT P6SM BKN100 OVC200=

USA.gov is the U.S. government's official web portal to all federal, state and local government web resources and services.